Rhonda Lamulle — WDC8441 — position and weather

sailwx.info

Track history (hours):
 
Tides and Currents Weather Stations Pressure Air Temp Water Temp Dewpoint Dewpoint Depression Visibility Wind Speed Wind Dir Waves Ship Positions

Rhonda Lamulle

Owner: Florida Marine, LLC, Mandeville, LA. More information available from US FCC via Universal Licensing System and Coast Guard Vessel Documentation Center.

Last reported at 2018-Apr-12 11:42 UTC. Time now 2018-Apr-25 16:35 UTC.
Position N 30°24' W 086°53'.
Warning: this ship's position is 13 days out of date.

Length 13 m; draft 3 m.

Type: Towing. MMSI: 367087104.

Date/timePositionNaut miles runAvg speedWind from/ knotsBaromVisibWave heightAir tempDewpointWater temp
2018-Apr-12 11:42N 30°24' W 086°53'1 6.0
2018-Apr-12 11:30N 30°24' W 086°52'3 5.8
2018-Apr-12 11:00N 30°24' W 086°48'3 5.9
2018-Apr-12 10:29N 30°24' W 086°45'12 0.7
2018-Apr-11 16:21N 30°26' W 086°30'2 4.4
2018-Apr-11 16:00N 30°26' W 086°29'2 4.3
2018-Apr-11 15:30N 30°26' W 086°26'2 4.4
2018-Apr-11 15:00N 30°26' W 086°24'2 4.2
2018-Apr-11 14:30N 30°26' W 086°21'  
2018-Apr-06 09:54N 30°26' W 086°20'2 5.9
2018-Apr-06 09:30N 30°26' W 086°23'3 5.9
2018-Apr-06 09:00N 30°26' W 086°26'3 5.8
2018-Apr-06 08:30N 30°26' W 086°30'13 4.7
2018-Apr-06 05:43N 30°24' W 086°45'1 4.9
2018-Apr-06 05:29N 30°24' W 086°46'3 5.4
2018-Apr-06 05:00N 30°24' W 086°49'3 4.7
2018-Apr-06 04:28N 30°24' W 086°52'  
Track history (hours):
 
Tides and Currents Weather Stations Pressure Air Temp Water Temp Dewpoint Dewpoint Depression Visibility Wind Speed Wind Dir Waves Ship Positions

Rhonda Lamulle

Owner: Florida Marine, LLC, Mandeville, LA. More information available from US FCC via Universal Licensing System and Coast Guard Vessel Documentation Center.

Last reported at 2018-Apr-12 11:42 UTC. Time now 2018-Apr-25 16:35 UTC.
Position N 30°24' W 086°53'.
Warning: this ship's position is 13 days out of date.

Length 13 m; draft 3 m.

Type: Towing. MMSI: 367087104.

Date/timePositionNaut miles runAvg speedWind from/ knotsBaromVisibWave heightAir tempDewpointWater temp
2018-Apr-12 11:42N 30°24' W 086°53'1 6.0
2018-Apr-12 11:30N 30°24' W 086°52'3 5.8
2018-Apr-12 11:00N 30°24' W 086°48'3 5.9
2018-Apr-12 10:29N 30°24' W 086°45'12 0.7
2018-Apr-11 16:21N 30°26' W 086°30'2 4.4
2018-Apr-11 16:00N 30°26' W 086°29'2 4.3
2018-Apr-11 15:30N 30°26' W 086°26'2 4.4
2018-Apr-11 15:00N 30°26' W 086°24'2 4.2
2018-Apr-11 14:30N 30°26' W 086°21'  
2018-Apr-06 09:54N 30°26' W 086°20'2 5.9
2018-Apr-06 09:30N 30°26' W 086°23'3 5.9
2018-Apr-06 09:00N 30°26' W 086°26'3 5.8
2018-Apr-06 08:30N 30°26' W 086°30'13 4.7
2018-Apr-06 05:43N 30°24' W 086°45'1 4.9
2018-Apr-06 05:29N 30°24' W 086°46'3 5.4
2018-Apr-06 05:00N 30°24' W 086°49'3 4.7
2018-Apr-06 04:28N 30°24' W 086°52'  

Dump ship's entire track history